sensor_id;sensor_type;location;lat;lon;timestamp;pressure;altitude;pressure_sealevel;temperature;humidity
34328;BME280;20588;48.840;10.064;2022-12-07T00:01:09;96504.28;;;3.26;nan
34328;BME280;20588;48.840;10.064;2022-12-07T00:03:36;96499.19;;;3.26;nan
34328;BME280;20588;48.840;10.064;2022-12-07T00:06:03;96494.09;;;3.26;nan
34328;BME280;20588;48.840;10.064;2022-12-07T00:08:31;96493.78;;;3.29;nan
34328;BME280;20588;48.840;10.064;2022-12-07T00:11:08;96497.28;;;3.28;nan
34328;BME280;20588;48.840;10.064;2022-12-07T00:13:36;96495.72;;;3.27;nan
34328;BME280;20588;48.840;10.064;2022-12-07T00:16:12;96493.78;;;3.29;nan
34328;BME280;20588;48.840;10.064;2022-12-07T00:18:39;96486.31;;;3.27;nan
34328;BME280;20588;48.840;10.064;2022-12-07T00:21:08;96483.59;;;3.29;nan
34328;BME280;20588;48.840;10.064;2022-12-07T00:23:35;96492.84;;;3.30;nan
34328;BME280;20588;48.840;10.064;2022-12-07T00:26:05;96492.19;;;3.28;nan
34328;BME280;20588;48.840;10.064;2022-12-07T00:28:32;96487.13;;;3.28;nan
34328;BME280;20588;48.840;10.064;2022-12-07T00:31:08;96480.63;;;3.25;nan
34328;BME280;20588;48.840;10.064;2022-12-07T00:33:35;96477.75;;;3.28;nan
34328;BME280;20588;48.840;10.064;2022-12-07T00:36:02;96478.69;;;3.27;nan
34328;BME280;20588;48.840;10.064;2022-12-07T00:38:31;96478.84;;;3.26;nan
34328;BME280;20588;48.840;10.064;2022-12-07T00:41:02;96470.28;;;3.27;nan
34328;BME280;20588;48.840;10.064;2022-12-07T00:43:29;96475.53;;;3.25;nan
34328;BME280;20588;48.840;10.064;2022-12-07T00:45:56;96482.03;;;3.28;nan
34328;BME280;20588;48.840;10.064;2022-12-07T00:48:22;96483.00;;;3.27;nan
34328;BME280;20588;48.840;10.064;2022-12-07T00:50:49;96474.72;;;3.25;nan
34328;BME280;20588;48.840;10.064;2022-12-07T00:53:15;96474.09;;;3.23;nan
34328;BME280;20588;48.840;10.064;2022-12-07T00:55:42;96474.41;;;3.28;nan
34328;BME280;20588;48.840;10.064;2022-12-07T00:58:08;96483.00;;;3.27;nan
34328;BME280;20588;48.840;10.064;2022-12-07T01:00:37;96478.69;;;3.27;nan
34328;BME280;20588;48.840;10.064;2022-12-07T01:03:04;96480.63;;;3.25;nan
34328;BME280;20588;48.840;10.064;2022-12-07T01:05:31;96481.22;;;3.27;nan
34328;BME280;20588;48.840;10.064;2022-12-07T01:07:57;96481.22;;;3.27;nan
34328;BME280;20588;48.840;10.064;2022-12-07T01:10:23;96480.13;;;3.30;nan
34328;BME280;20588;48.840;10.064;2022-12-07T01:12:49;96480.13;;;3.30;nan
34328;BME280;20588;48.840;10.064;2022-12-07T01:15:15;96480.13;;;3.30;nan
34328;BME280;20588;48.840;10.064;2022-12-07T01:17:41;96483.59;;;3.29;nan
34328;BME280;20588;48.840;10.064;2022-12-07T01:20:08;96480.28;;;3.28;nan
34328;BME280;20588;48.840;10.064;2022-12-07T01:22:41;96484.41;;;3.29;nan
34328;BME280;20588;48.840;10.064;2022-12-07T01:25:09;96477.59;;;3.30;nan
34328;BME280;20588;48.840;10.064;2022-12-07T01:27:36;96490.28;;;3.30;nan
34328;BME280;20588;48.840;10.064;2022-12-07T01:30:04;96485.66;;;3.33;nan
34328;BME280;20588;48.840;10.064;2022-12-07T01:32:30;96476.63;;;3.31;nan
34328;BME280;20588;48.840;10.064;2022-12-07T01:34:56;96477.59;;;3.30;nan
34328;BME280;20588;48.840;10.064;2022-12-07T01:37:23;96486.78;;;3.31;nan
34328;BME280;20588;48.840;10.064;2022-12-07T01:39:50;96485.66;;;3.33;nan
34328;BME280;20588;48.840;10.064;2022-12-07T01:42:18;96489.97;;;3.33;nan
34328;BME280;20588;48.840;10.064;2022-12-07T01:47:53;96484.88;;;3.33;nan
34328;BME280;20588;48.840;10.064;2022-12-07T01:50:22;96490.56;;;3.35;nan
34328;BME280;20588;48.840;10.064;2022-12-07T01:52:51;96497.44;;;3.34;nan
34328;BME280;20588;48.840;10.064;2022-12-07T01:55:18;96494.56;;;3.29;nan
34328;BME280;20588;48.840;10.064;2022-12-07T01:57:48;96494.56;;;3.29;nan
34328;BME280;20588;48.840;10.064;2022-12-07T02:00:15;96484.75;;;3.26;nan
34328;BME280;20588;48.840;10.064;2022-12-07T02:02:53;96492.53;;;3.25;nan
34328;BME280;20588;48.840;10.064;2022-12-07T02:05:20;96491.13;;;3.22;nan
34328;BME280;20588;48.840;10.064;2022-12-07T02:07:48;96486.81;;;3.23;nan
34328;BME280;20588;48.840;10.064;2022-12-07T02:10:16;96487.78;;;3.22;nan
34328;BME280;20588;48.840;10.064;2022-12-07T02:12:44;96491.28;;;3.21;nan
34328;BME280;20588;48.840;10.064;2022-12-07T02:15:12;96490.66;;;3.19;nan
34328;BME280;20588;48.840;10.064;2022-12-07T02:26:07;96495.09;;;3.17;nan
34328;BME280;20588;48.840;10.064;2022-12-07T02:31:28;96484.00;;;3.18;nan
34328;BME280;20588;48.840;10.064;2022-12-07T02:34:09;96483.81;;;3.19;nan
34328;BME280;20588;48.840;10.064;2022-12-07T02:36:43;96485.56;;;3.19;nan
34328;BME280;20588;48.840;10.064;2022-12-07T02:39:25;96482.38;;;3.17;nan
34328;BME280;20588;48.840;10.064;2022-12-07T02:41:59;96477.94;;;3.19;nan
34328;BME280;20588;48.840;10.064;2022-12-07T02:44:29;96483.03;;;3.19;nan
34328;BME280;20588;48.840;10.064;2022-12-07T02:47:03;96476.53;;;3.16;nan
34328;BME280;20588;48.840;10.064;2022-12-07T02:49:31;96484.75;;;3.18;nan
34328;BME280;20588;48.840;10.064;2022-12-07T02:51:57;96481.78;;;3.15;nan
34328;BME280;20588;48.840;10.064;2022-12-07T02:54:23;96483.34;;;3.16;nan
34328;BME280;20588;48.840;10.064;2022-12-07T03:05:13;96475.41;;;3.11;nan
34328;BME280;20588;48.840;10.064;2022-12-07T03:08:02;96469.09;;;3.07;nan
34328;BME280;20588;48.840;10.064;2022-12-07T03:13:28;96472.59;;;3.06;nan
34328;BME280;20588;48.840;10.064;2022-12-07T03:16:14;96465.47;;;3.01;nan
34328;BME280;20588;48.840;10.064;2022-12-07T03:18:47;96464.03;;;2.99;nan
34328;BME280;20588;48.840;10.064;2022-12-07T03:21:19;96470.88;;;2.98;nan
34328;BME280;20588;48.840;10.064;2022-12-07T03:23:51;96470.72;;;3.00;nan
34328;BME280;20588;48.840;10.064;2022-12-07T03:26:20;96469.28;;;2.97;nan
34328;BME280;20588;48.840;10.064;2022-12-07T03:28:52;96463.88;;;3.00;nan
34328;BME280;20588;48.840;10.064;2022-12-07T03:31:22;96455.81;;;2.97;nan
34328;BME280;20588;48.840;10.064;2022-12-07T03:34:02;96458.34;;;2.97;nan
34328;BME280;20588;48.840;10.064;2022-12-07T03:36:47;96464.53;;;2.94;nan
34328;BME280;20588;48.840;10.064;2022-12-07T03:39:26;96461.34;;;2.92;nan
34328;BME280;20588;48.840;10.064;2022-12-07T03:41:54;96461.06;;;2.87;nan
34328;BME280;20588;48.840;10.064;2022-12-07T03:44:21;96464.88;;;2.83;nan
34328;BME280;20588;48.840;10.064;2022-12-07T03:49:33;96466.31;;;2.78;nan
34328;BME280;20588;48.840;10.064;2022-12-07T03:54:39;96457.63;;;2.72;nan
34328;BME280;20588;48.840;10.064;2022-12-07T03:57:08;96454.59;;;2.69;nan
34328;BME280;20588;48.840;10.064;2022-12-07T03:59:35;96450.16;;;2.71;nan
34328;BME280;20588;48.840;10.064;2022-12-07T04:02:05;96462.22;;;2.69;nan
34328;BME280;20588;48.840;10.064;2022-12-07T04:04:32;96455.72;;;2.66;nan
34328;BME280;20588;48.840;10.064;2022-12-07T04:06:58;96451.59;;;2.65;nan
34328;BME280;20588;48.840;10.064;2022-12-07T04:09:25;96456.66;;;2.65;nan
34328;BME280;20588;48.840;10.064;2022-12-07T04:11:51;96446.66;;;2.64;nan
34328;BME280;20588;48.840;10.064;2022-12-07T04:14:17;96449.38;;;2.62;nan
34328;BME280;20588;48.840;10.064;2022-12-07T04:16:45;96449.69;;;2.59;nan
34328;BME280;20588;48.840;10.064;2022-12-07T04:19:11;96445.41;;;2.60;nan
34328;BME280;20588;48.840;10.064;2022-12-07T04:21:37;96443.19;;;2.57;nan
34328;BME280;20588;48.840;10.064;2022-12-07T04:24:04;96450.81;;;2.57;nan
34328;BME280;20588;48.840;10.064;2022-12-07T04:26:30;96446.88;;;2.54;nan
34328;BME280;20588;48.840;10.064;2022-12-07T04:28:56;96452.28;;;2.51;nan
34328;BME280;20588;48.840;10.064;2022-12-07T04:31:22;96445.59;;;2.50;nan
34328;BME280;20588;48.840;10.064;2022-12-07T04:33:48;96449.25;;;2.48;nan
34328;BME280;20588;48.840;10.064;2022-12-07T04:36:14;96447.69;;;2.47;nan
34328;BME280;20588;48.840;10.064;2022-12-07T04:38:40;96440.66;;;2.49;nan
34328;BME280;20588;48.840;10.064;2022-12-07T04:41:08;96430.53;;;2.49;nan
34328;BME280;20588;48.840;10.064;2022-12-07T04:43:34;96413.41;;;2.43;nan
34328;BME280;20588;48.840;10.064;2022-12-07T04:46:01;96410.41;;;2.39;nan
34328;BME280;20588;48.840;10.064;2022-12-07T04:48:27;96407.41;;;2.36;nan
34328;BME280;20588;48.840;10.064;2022-12-07T04:50:54;96410.25;;;2.33;nan
34328;BME280;20588;48.840;10.064;2022-12-07T04:53:20;96405.66;;;2.28;nan
34328;BME280;20588;48.840;10.064;2022-12-07T04:55:46;96407.41;;;2.28;nan
34328;BME280;20588;48.840;10.064;2022-12-07T04:58:13;96403.28;;;2.27;nan
34328;BME280;20588;48.840;10.064;2022-12-07T05:00:40;96399.50;;;2.23;nan
34328;BME280;20588;48.840;10.064;2022-12-07T05:03:06;96404.25;;;2.26;nan
34328;BME280;20588;48.840;10.064;2022-12-07T05:05:33;96413.75;;;2.24;nan
34328;BME280;20588;48.840;10.064;2022-12-07T05:07:59;96408.22;;;2.20;nan
34328;BME280;20588;48.840;10.064;2022-12-07T05:10:25;96412.97;;;2.23;nan
34328;BME280;20588;48.840;10.064;2022-12-07T05:12:51;96412.19;;;2.23;nan
34328;BME280;20588;48.840;10.064;2022-12-07T05:15:17;96422.34;;;2.23;nan
34328;BME280;20588;48.840;10.064;2022-12-07T05:17:43;96413.75;;;2.24;nan
34328;BME280;20588;48.840;10.064;2022-12-07T05:20:10;96410.25;;;2.17;nan
34328;BME280;20588;48.840;10.064;2022-12-07T05:22:36;96416.13;;;2.17;nan
34328;BME280;20588;48.840;10.064;2022-12-07T05:25:02;96406.78;;;2.18;nan
34328;BME280;20588;48.840;10.064;2022-12-07T05:27:28;96410.25;;;2.17;nan
34328;BME280;20588;48.840;10.064;2022-12-07T05:29:54;96413.13;;;2.22;nan
34328;BME280;20588;48.840;10.064;2022-12-07T05:32:20;96415.97;;;2.19;nan
34328;BME280;20588;48.840;10.064;2022-12-07T05:34:46;96424.22;;;2.21;nan
34328;BME280;20588;48.840;10.064;2022-12-07T05:37:12;96427.09;;;2.18;nan
34328;BME280;20588;48.840;10.064;2022-12-07T05:39:38;96432.16;;;2.18;nan
34328;BME280;20588;48.840;10.064;2022-12-07T05:42:07;96426.94;;;2.19;nan
34328;BME280;20588;48.840;10.064;2022-12-07T05:44:42;96425.31;;;2.18;nan
34328;BME280;20588;48.840;10.064;2022-12-07T05:47:09;96434.72;;;2.18;nan
34328;BME280;20588;48.840;10.064;2022-12-07T05:49:35;96426.13;;;2.19;nan
34328;BME280;20588;48.840;10.064;2022-12-07T05:52:02;96424.56;;;2.18;nan
34328;BME280;20588;48.840;10.064;2022-12-07T05:54:28;96426.94;;;2.19;nan
34328;BME280;20588;48.840;10.064;2022-12-07T05:56:55;96421.84;;;2.19;nan
34328;BME280;20588;48.840;10.064;2022-12-07T05:59:21;96420.41;;;2.25;nan
34328;BME280;20588;48.840;10.064;2022-12-07T06:02:04;96418.19;;;2.22;nan
34328;BME280;20588;48.840;10.064;2022-12-07T06:04:34;96417.72;;;2.18;nan
34328;BME280;20588;48.840;10.064;2022-12-07T06:07:01;96423.44;;;2.20;nan
34328;BME280;20588;48.840;10.064;2022-12-07T06:09:28;96430.25;;;2.20;nan
34328;BME280;20588;48.840;10.064;2022-12-07T06:11:55;96440.38;;;2.20;nan
34328;BME280;20588;48.840;10.064;2022-12-07T06:14:40;96436.13;;;2.20;nan
34328;BME280;20588;48.840;10.064;2022-12-07T06:17:07;96444.53;;;2.21;nan
34328;BME280;20588;48.840;10.064;2022-12-07T06:19:33;96441.34;;;2.19;nan
34328;BME280;20588;48.840;10.064;2022-12-07T06:21:59;96434.72;;;2.18;nan
34328;BME280;20588;48.840;10.064;2022-12-07T06:24:25;96437.25;;;2.18;nan
34328;BME280;20588;48.840;10.064;2022-12-07T06:26:51;96447.22;;;2.19;nan
34328;BME280;20588;48.840;10.064;2022-12-07T06:29:18;96450.53;;;2.20;nan
34328;BME280;20588;48.840;10.064;2022-12-07T06:31:45;96453.72;;;2.22;nan
34328;BME280;20588;48.840;10.064;2022-12-07T06:34:13;96451.19;;;2.22;nan
34328;BME280;20588;48.840;10.064;2022-12-07T06:36:39;96451.19;;;2.22;nan
34328;BME280;20588;48.840;10.064;2022-12-07T06:39:07;96468.00;;;2.23;nan
34328;BME280;20588;48.840;10.064;2022-12-07T06:41:38;96458.47;;;2.25;nan
34328;BME280;20588;48.840;10.064;2022-12-07T06:44:07;96455.16;;;2.24;nan
34328;BME280;20588;48.840;10.064;2022-12-07T06:46:33;96453.88;;;2.28;nan
34328;BME280;20588;48.840;10.064;2022-12-07T06:49:01;96460.53;;;2.29;nan
34328;BME280;20588;48.840;10.064;2022-12-07T06:51:27;96464.34;;;2.33;nan
34328;BME280;20588;48.840;10.064;2022-12-07T06:53:54;96458.31;;;2.34;nan
34328;BME280;20588;48.840;10.064;2022-12-07T06:56:20;96463.22;;;2.36;nan
34328;BME280;20588;48.840;10.064;2022-12-07T06:58:46;96457.03;;;2.38;nan
34328;BME280;20588;48.840;10.064;2022-12-07T07:01:17;96465.44;;;2.39;nan
34328;BME280;20588;48.840;10.064;2022-12-07T07:03:44;96470.84;;;2.44;nan
34328;BME280;20588;48.840;10.064;2022-12-07T07:06:11;96465.63;;;2.45;nan
34328;BME280;20588;48.840;10.064;2022-12-07T07:08:38;96468.91;;;2.46;nan
34328;BME280;20588;48.840;10.064;2022-12-07T07:11:05;96464.97;;;2.51;nan
34328;BME280;20588;48.840;10.064;2022-12-07T07:13:32;96468.44;;;2.50;nan
34328;BME280;20588;48.840;10.064;2022-12-07T07:15:59;96464.31;;;2.49;nan
34328;BME280;20588;48.840;10.064;2022-12-07T07:18:25;96466.69;;;2.51;nan
34328;BME280;20588;48.840;10.064;2022-12-07T07:20:52;96469.06;;;2.52;nan
34328;BME280;20588;48.840;10.064;2022-12-07T07:23:19;96467.50;;;2.51;nan
34328;BME280;20588;48.840;10.064;2022-12-07T07:25:46;96467.19;;;2.54;nan
34328;BME280;20588;48.840;10.064;2022-12-07T07:28:13;96471.78;;;2.59;nan
34328;BME280;20588;48.840;10.064;2022-12-07T07:30:39;96470.31;;;2.64;nan
34328;BME280;20588;48.840;10.064;2022-12-07T07:33:05;96472.38;;;2.69;nan
34328;BME280;20588;48.840;10.064;2022-12-07T07:35:33;96479.34;;;2.75;nan
34328;BME280;20588;48.840;10.064;2022-12-07T07:38:00;96481.56;;;2.78;nan
34328;BME280;20588;48.840;10.064;2022-12-07T07:40:26;96482.81;;;2.82;nan
34328;BME280;20588;48.840;10.064;2022-12-07T07:42:55;96470.75;;;2.76;nan
34328;BME280;20588;48.840;10.064;2022-12-07T07:45:22;96483.28;;;2.85;nan
34328;BME280;20588;48.840;10.064;2022-12-07T07:47:48;96482.97;;;2.88;nan
34328;BME280;20588;48.840;10.064;2022-12-07T07:50:15;96482.97;;;2.88;nan
34328;BME280;20588;48.840;10.064;2022-12-07T07:52:42;96488.69;;;2.90;nan
34328;BME280;20588;48.840;10.064;2022-12-07T07:55:08;96483.44;;;2.92;nan
34328;BME280;20588;48.840;10.064;2022-12-07T07:57:35;96488.19;;;2.95;nan
34328;BME280;20588;48.840;10.064;2022-12-07T08:00:05;96492.63;;;2.93;nan
34328;BME280;20588;48.840;10.064;2022-12-07T08:02:32;96483.75;;;2.97;nan
34328;BME280;20588;48.840;10.064;2022-12-07T08:04:58;96482.47;;;3.01;nan
34328;BME280;20588;48.840;10.064;2022-12-07T08:07:24;96477.84;;;3.04;nan
34328;BME280;20588;48.840;10.064;2022-12-07T08:09:50;96483.38;;;3.08;nan
34328;BME280;20588;48.840;10.064;2022-12-07T08:12:17;96482.88;;;3.12;nan
34328;BME280;20588;48.840;10.064;2022-12-07T08:14:43;96487.78;;;3.14;nan
34328;BME280;20588;48.840;10.064;2022-12-07T08:17:09;96481.88;;;3.21;nan
34328;BME280;20588;48.840;10.064;2022-12-07T08:19:35;96486.81;;;3.23;nan
34328;BME280;20588;48.840;10.064;2022-12-07T08:22:02;96483.16;;;3.25;nan
34328;BME280;20588;48.840;10.064;2022-12-07T08:24:28;96480.47;;;3.27;nan
34328;BME280;20588;48.840;10.064;2022-12-07T08:26:54;96488.53;;;3.30;nan
34328;BME280;20588;48.840;10.064;2022-12-07T08:29:20;96489.97;;;3.33;nan
34328;BME280;20588;48.840;10.064;2022-12-07T08:31:46;96486.94;;;3.37;nan
34328;BME280;20588;48.840;10.064;2022-12-07T08:34:13;96488.81;;;3.43;nan
34328;BME280;20588;48.840;10.064;2022-12-07T08:36:39;96495.28;;;3.46;nan
34328;BME280;20588;48.840;10.064;2022-12-07T08:39:06;96487.56;;;3.62;nan
34328;BME280;20588;48.840;10.064;2022-12-07T08:41:32;96487.38;;;3.71;nan
34328;BME280;20588;48.840;10.064;2022-12-07T08:43:59;96485.50;;;3.88;nan
34328;BME280;20588;48.840;10.064;2022-12-07T08:46:26;96484.16;;;4.00;nan
34328;BME280;20588;48.840;10.064;2022-12-07T08:49:03;96484.59;;;4.26;nan
34328;BME280;20588;48.840;10.064;2022-12-07T08:51:30;96492.31;;;4.70;nan
34328;BME280;20588;48.840;10.064;2022-12-07T08:54:00;96486.19;;;4.79;nan
34328;BME280;20588;48.840;10.064;2022-12-07T08:56:27;96481.25;;;4.77;nan
34328;BME280;20588;48.840;10.064;2022-12-07T08:58:53;96484.84;;;4.68;nan
34328;BME280;20588;48.840;10.064;2022-12-07T09:01:19;96483.00;;;4.62;nan
34328;BME280;20588;48.840;10.064;2022-12-07T09:03:45;96492.47;;;4.54;nan
34328;BME280;20588;48.840;10.064;2022-12-07T09:06:11;96479.81;;;4.46;nan
34328;BME280;20588;48.840;10.064;2022-12-07T09:08:41;96495.31;;;4.36;nan
34328;BME280;20588;48.840;10.064;2022-12-07T09:11:09;96491.84;;;4.37;nan
34328;BME280;20588;48.840;10.064;2022-12-07T09:13:35;96483.56;;;4.35;nan
34328;BME280;20588;48.840;10.064;2022-12-07T09:16:01;96488.03;;;4.33;nan
34328;BME280;20588;48.840;10.064;2022-12-07T09:18:27;96485.31;;;4.35;nan
34328;BME280;20588;48.840;10.064;2022-12-07T09:20:53;96481.19;;;4.34;nan
34328;BME280;20588;48.840;10.064;2022-12-07T09:23:19;96477.25;;;4.46;nan
34328;BME280;20588;48.840;10.064;2022-12-07T09:25:45;96476.75;;;4.50;nan
34328;BME280;20588;48.840;10.064;2022-12-07T09:28:11;96481.78;;;4.58;nan
34328;BME280;20588;48.840;10.064;2022-12-07T09:30:37;96483.56;;;4.72;nan
34328;BME280;20588;48.840;10.064;2022-12-07T09:33:04;96484.25;;;4.81;nan
34328;BME280;20588;48.840;10.064;2022-12-07T09:35:30;96484.88;;;4.97;nan
34328;BME280;20588;48.840;10.064;2022-12-07T09:37:56;96478.38;;;5.09;nan
34328;BME280;20588;48.840;10.064;2022-12-07T09:40:23;96476.78;;;5.08;nan
34328;BME280;20588;48.840;10.064;2022-12-07T09:42:54;96480.38;;;5.14;nan
34328;BME280;20588;48.840;10.064;2022-12-07T09:45:24;96475.09;;;5.15;nan
34328;BME280;20588;48.840;10.064;2022-12-07T09:47:51;96476.94;;;5.21;nan
34328;BME280;20588;48.840;10.064;2022-12-07T09:50:20;96473.59;;;5.35;nan
34328;BME280;20588;48.840;10.064;2022-12-07T09:52:47;96475.34;;;5.49;nan
34328;BME280;20588;48.840;10.064;2022-12-07T09:55:22;96473.72;;;5.63;nan
34328;BME280;20588;48.840;10.064;2022-12-07T09:57:50;96467.00;;;5.77;nan
34328;BME280;20588;48.840;10.064;2022-12-07T10:00:23;96466.69;;;5.86;nan
34328;BME280;20588;48.840;10.064;2022-12-07T10:02:58;96465.81;;;5.94;nan
34328;BME280;20588;48.840;10.064;2022-12-07T10:05:40;96461.00;;;6.05;nan
34328;BME280;20588;48.840;10.064;2022-12-07T10:08:11;96464.38;;;6.06;nan
34328;BME280;20588;48.840;10.064;2022-12-07T10:10:38;96462.47;;;6.14;nan
34328;BME280;20588;48.840;10.064;2022-12-07T10:13:07;96454.00;;;6.14;nan
34328;BME280;20588;48.840;10.064;2022-12-07T10:15:50;96458.44;;;6.26;nan
34328;BME280;20588;48.840;10.064;2022-12-07T10:18:41;96456.59;;;6.41;nan
34328;BME280;20588;48.840;10.064;2022-12-07T10:21:18;96451.34;;;6.49;nan
34328;BME280;20588;48.840;10.064;2022-12-07T10:24:19;96451.34;;;6.49;nan
34328;BME280;20588;48.840;10.064;2022-12-07T10:29:23;96443.56;;;6.64;nan
34328;BME280;20588;48.840;10.064;2022-12-07T10:34:34;96443.34;;;6.59;nan
34328;BME280;20588;48.840;10.064;2022-12-07T10:44:45;96438.84;;;6.61;nan
34328;BME280;20588;48.840;10.064;2022-12-07T10:56:23;96427.78;;;6.54;nan
34328;BME280;20588;48.840;10.064;2022-12-07T11:01:48;96417.81;;;6.65;nan
34328;BME280;20588;48.840;10.064;2022-12-07T11:07:10;96411.91;;;6.58;nan
34328;BME280;20588;48.840;10.064;2022-12-07T11:15:18;96415.53;;;6.43;nan
34328;BME280;20588;48.840;10.064;2022-12-07T11:20:37;96412.22;;;6.21;nan
34328;BME280;20588;48.840;10.064;2022-12-07T11:25:58;96409.09;;;6.26;nan
34328;BME280;20588;48.840;10.064;2022-12-07T11:28:43;96412.13;;;6.36;nan
34328;BME280;20588;48.840;10.064;2022-12-07T11:36:40;96401.56;;;6.45;nan
34328;BME280;20588;48.840;10.064;2022-12-07T11:39:31;96404.75;;;6.47;nan
34328;BME280;20588;48.840;10.064;2022-12-07T11:42:16;96401.19;;;6.42;nan
34328;BME280;20588;48.840;10.064;2022-12-07T11:44:56;96388.41;;;6.42;nan
34328;BME280;20588;48.840;10.064;2022-12-07T11:53:17;96384.28;;;6.47;nan
34328;BME280;20588;48.840;10.064;2022-12-07T11:55:54;96383.13;;;6.50;nan
34328;BME280;20588;48.840;10.064;2022-12-07T12:04:02;96378.00;;;6.43;nan
34328;BME280;20588;48.840;10.064;2022-12-07T12:06:31;96377.56;;;6.40;nan
34328;BME280;20588;48.840;10.064;2022-12-07T12:09:16;96369.09;;;6.39;nan
34328;BME280;20588;48.840;10.064;2022-12-07T12:14:46;96352.44;;;6.50;nan
34328;BME280;20588;48.840;10.064;2022-12-07T12:20:20;96350.69;;;6.84;nan
34328;BME280;20588;48.840;10.064;2022-12-07T12:23:07;96351.66;;;6.90;nan
34328;BME280;20588;48.840;10.064;2022-12-07T12:25:50;96358.63;;;7.09;nan
34328;BME280;20588;48.840;10.064;2022-12-07T12:33:35;96350.03;;;7.43;nan
34328;BME280;20588;48.840;10.064;2022-12-07T12:36:30;96350.44;;;7.39;nan
34328;BME280;20588;48.840;10.064;2022-12-07T12:39:15;96354.97;;;7.38;nan
34328;BME280;20588;48.840;10.064;2022-12-07T12:46:58;96352.47;;;6.97;nan
34328;BME280;20588;48.840;10.064;2022-12-07T12:51:55;96347.44;;;6.63;nan
34328;BME280;20588;48.840;10.064;2022-12-07T12:54:32;96340.84;;;6.47;nan
34328;BME280;20588;48.840;10.064;2022-12-07T12:57:07;96339.00;;;6.35;nan
34328;BME280;20588;48.840;10.064;2022-12-07T13:02:24;96337.50;;;6.13;nan
34328;BME280;20588;48.840;10.064;2022-12-07T13:07:52;96341.16;;;6.04;nan
34328;BME280;20588;48.840;10.064;2022-12-07T13:15:54;96331.59;;;5.85;nan
34328;BME280;20588;48.840;10.064;2022-12-07T13:20:59;96320.09;;;5.74;nan
34328;BME280;20588;48.840;10.064;2022-12-07T13:28:51;96320.34;;;5.58;nan
34328;BME280;20588;48.840;10.064;2022-12-07T13:33:59;96323.66;;;5.31;nan
34328;BME280;20588;48.840;10.064;2022-12-07T13:36:29;96318.47;;;5.24;nan
34328;BME280;20588;48.840;10.064;2022-12-07T13:39:10;96316.09;;;5.23;nan
34328;BME280;20588;48.840;10.064;2022-12-07T13:41:37;96319.00;;;5.20;nan
34328;BME280;20588;48.840;10.064;2022-12-07T13:44:12;96322.53;;;5.19;nan
34328;BME280;20588;48.840;10.064;2022-12-07T13:46:59;96321.75;;;5.18;nan
34328;BME280;20588;48.840;10.064;2022-12-07T13:49:29;96316.25;;;5.15;nan
34328;BME280;20588;48.840;10.064;2022-12-07T13:52:14;96324.00;;;5.07;nan
34328;BME280;20588;48.840;10.064;2022-12-07T13:57:12;96315.06;;;4.96;nan
34328;BME280;20588;48.840;10.064;2022-12-07T13:59:38;96320.75;;;4.98;nan
34328;BME280;20588;48.840;10.064;2022-12-07T14:04:46;96312.25;;;4.91;nan
34328;BME280;20588;48.840;10.064;2022-12-07T14:07:34;96311.03;;;4.87;nan
34328;BME280;20588;48.840;10.064;2022-12-07T14:12:56;96310.97;;;4.81;nan
34328;BME280;20588;48.840;10.064;2022-12-07T14:15:28;96317.38;;;4.77;nan
34328;BME280;20588;48.840;10.064;2022-12-07T14:17:56;96325.03;;;4.77;nan
34328;BME280;20588;48.840;10.064;2022-12-07T14:20:49;96321.06;;;4.74;nan
34328;BME280;20588;48.840;10.064;2022-12-07T14:23:25;96321.06;;;4.74;nan
34328;BME280;20588;48.840;10.064;2022-12-07T14:25:53;96319.69;;;4.72;nan
34328;BME280;20588;48.840;10.064;2022-12-07T14:28:28;96317.13;;;4.72;nan
34328;BME280;20588;48.840;10.064;2022-12-07T14:30:55;96314.41;;;4.73;nan
34328;BME280;20588;48.840;10.064;2022-12-07T14:33:21;96315.97;;;4.74;nan
34328;BME280;20588;48.840;10.064;2022-12-07T14:35:48;96316.16;;;4.73;nan
34328;BME280;20588;48.840;10.064;2022-12-07T14:38:15;96316.31;;;4.71;nan
34328;BME280;20588;48.840;10.064;2022-12-07T14:40:41;96315.91;;;4.68;nan
34328;BME280;20588;48.840;10.064;2022-12-07T14:43:12;96315.72;;;4.69;nan
34328;BME280;20588;48.840;10.064;2022-12-07T14:45:40;96312.31;;;4.62;nan
34328;BME280;20588;48.840;10.064;2022-12-07T14:48:11;96311.09;;;4.58;nan
34328;BME280;20588;48.840;10.064;2022-12-07T14:50:42;96306.16;;;4.57;nan
34328;BME280;20588;48.840;10.064;2022-12-07T14:53:16;96305.19;;;4.58;nan
34328;BME280;20588;48.840;10.064;2022-12-07T14:55:43;96309.53;;;4.57;nan
34328;BME280;20588;48.840;10.064;2022-12-07T14:58:16;96313.38;;;4.53;nan
34328;BME280;20588;48.840;10.064;2022-12-07T15:00:43;96311.78;;;4.52;nan
34328;BME280;20588;48.840;10.064;2022-12-07T15:03:10;96311.19;;;4.50;nan
34328;BME280;20588;48.840;10.064;2022-12-07T15:05:37;96318.03;;;4.50;nan
34328;BME280;20588;48.840;10.064;2022-12-07T15:08:03;96315.22;;;4.45;nan
34328;BME280;20588;48.840;10.064;2022-12-07T15:10:33;96317.94;;;4.43;nan
34328;BME280;20588;48.840;10.064;2022-12-07T15:13:00;96315.94;;;4.39;nan
34328;BME280;20588;48.840;10.064;2022-12-07T15:15:45;96320.69;;;4.42;nan
34328;BME280;20588;48.840;10.064;2022-12-07T15:18:12;96313.56;;;4.37;nan
34328;BME280;20588;48.840;10.064;2022-12-07T15:20:38;96308.03;;;4.34;nan
34328;BME280;20588;48.840;10.064;2022-12-07T15:23:04;96307.56;;;4.30;nan
34328;BME280;20588;48.840;10.064;2022-12-07T15:25:30;96312.66;;;4.30;nan
34328;BME280;20588;48.840;10.064;2022-12-07T15:27:56;96311.44;;;4.26;nan
34328;BME280;20588;48.840;10.064;2022-12-07T15:30:23;96308.09;;;4.26;nan
34328;BME280;20588;48.840;10.064;2022-12-07T15:32:52;96312.16;;;4.20;nan
34328;BME280;20588;48.840;10.064;2022-12-07T15:35:19;96310.22;;;4.22;nan
34328;BME280;20588;48.840;10.064;2022-12-07T15:37:46;96306.88;;;4.22;nan
34328;BME280;20588;48.840;10.064;2022-12-07T15:40:13;96314.06;;;4.18;nan
34328;BME280;20588;48.840;10.064;2022-12-07T15:42:39;96310.47;;;4.13;nan
34328;BME280;20588;48.840;10.064;2022-12-07T15:45:07;96304.34;;;4.07;nan
34328;BME280;20588;48.840;10.064;2022-12-07T15:47:37;96309.63;;;4.06;nan
34328;BME280;20588;48.840;10.064;2022-12-07T15:50:09;96307.66;;;4.08;nan